sensor_id;sensor_type;location;lat;lon;timestamp;pressure;altitude;pressure_sealevel;temperature;humidity
69622;BME280;56841;55.964;37.674;2023-04-21T00:02:01;99655.47;;;6.79;41.43
69622;BME280;56841;55.964;37.674;2023-04-21T00:04:27;99647.59;;;6.79;41.29
69622;BME280;56841;55.964;37.674;2023-04-21T00:06:53;99648.88;;;6.65;41.70
69622;BME280;56841;55.964;37.674;2023-04-21T00:09:20;99647.81;;;6.58;41.80
69622;BME280;56841;55.964;37.674;2023-04-21T00:11:46;99645.63;;;6.53;41.86
69622;BME280;56841;55.964;37.674;2023-04-21T00:14:12;99645.31;;;6.56;41.58
69622;BME280;56841;55.964;37.674;2023-04-21T00:16:38;99641.31;;;6.52;42.06
69622;BME280;56841;55.964;37.674;2023-04-21T00:19:03;99646.56;;;6.52;42.75
69622;BME280;56841;55.964;37.674;2023-04-21T00:21:32;99644.47;;;6.56;42.56
69622;BME280;56841;55.964;37.674;2023-04-21T00:23:58;99640.50;;;6.52;42.85
69622;BME280;56841;55.964;37.674;2023-04-21T00:26:24;99637.31;;;6.48;42.41
69622;BME280;56841;55.964;37.674;2023-04-21T00:28:50;99645.63;;;6.53;42.22
69622;BME280;56841;55.964;37.674;2023-04-21T00:31:16;99649.88;;;6.54;42.90
69622;BME280;56841;55.964;37.674;2023-04-21T00:33:42;99646.56;;;6.52;43.76
69622;BME280;56841;55.964;37.674;2023-04-21T00:36:08;99639.13;;;6.48;42.71
69622;BME280;56841;55.964;37.674;2023-04-21T00:38:34;99641.91;;;6.46;43.11
69622;BME280;56841;55.964;37.674;2023-04-21T00:41:00;99641.03;;;6.46;42.43
69622;BME280;56841;55.964;37.674;2023-04-21T00:43:25;99643.53;;;6.47;42.19
69622;BME280;56841;55.964;37.674;2023-04-21T00:45:53;99636.78;;;6.45;42.61
69622;BME280;56841;55.964;37.674;2023-04-21T00:48:19;99630.56;;;6.46;42.66
69622;BME280;56841;55.964;37.674;2023-04-21T00:50:45;99635.94;;;6.44;42.24
69622;BME280;56841;55.964;37.674;2023-04-21T00:53:13;99631.69;;;6.43;42.90
69622;BME280;56841;55.964;37.674;2023-04-21T00:55:39;99638.31;;;6.37;42.53
69622;BME280;56841;55.964;37.674;2023-04-21T00:58:06;99628.78;;;6.36;42.61
69622;BME280;56841;55.964;37.674;2023-04-21T01:00:32;99628.91;;;6.35;42.88
69622;BME280;56841;55.964;37.674;2023-04-21T01:02:59;99627.53;;;6.31;43.36
69622;BME280;56841;55.964;37.674;2023-04-21T01:05:26;99621.22;;;6.24;43.97
69622;BME280;56841;55.964;37.674;2023-04-21T01:07:52;99626.72;;;6.21;44.26
69622;BME280;56841;55.964;37.674;2023-04-21T01:10:18;99618.59;;;6.14;44.65
69622;BME280;56841;55.964;37.674;2023-04-21T01:12:46;99623.84;;;6.04;46.07
69622;BME280;56841;55.964;37.674;2023-04-21T01:15:16;99619.56;;;5.93;46.61
69622;BME280;56841;55.964;37.674;2023-04-21T01:17:42;99621.59;;;5.90;46.78
69622;BME280;56841;55.964;37.674;2023-04-21T01:20:11;99620.50;;;5.83;47.10
69622;BME280;56841;55.964;37.674;2023-04-21T01:22:38;99617.16;;;5.81;46.99
69622;BME280;56841;55.964;37.674;2023-04-21T01:25:07;99615.69;;;5.78;46.00
69622;BME280;56841;55.964;37.674;2023-04-21T01:27:35;99616.50;;;5.79;45.01
69622;BME280;56841;55.964;37.674;2023-04-21T01:30:02;99611.38;;;5.77;44.79
69622;BME280;56841;55.964;37.674;2023-04-21T01:32:30;99619.66;;;5.73;45.54
69622;BME280;56841;55.964;37.674;2023-04-21T01:34:57;99607.63;;;5.60;46.83
69622;BME280;56841;55.964;37.674;2023-04-21T01:37:28;99608.31;;;5.53;47.74
69622;BME280;56841;55.964;37.674;2023-04-21T01:39:57;99606.38;;;5.45;47.55
69622;BME280;56841;55.964;37.674;2023-04-21T01:42:25;99609.97;;;5.44;46.71
69622;BME280;56841;55.964;37.674;2023-04-21T01:44:52;99607.63;;;5.41;46.87
69622;BME280;56841;55.964;37.674;2023-04-21T01:47:19;99597.25;;;5.39;46.34
69622;BME280;56841;55.964;37.674;2023-04-21T01:49:45;99600.72;;;5.40;46.49
69622;BME280;56841;55.964;37.674;2023-04-21T01:52:11;99603.22;;;5.41;46.39
69622;BME280;56841;55.964;37.674;2023-04-21T01:54:38;99605.69;;;5.43;46.71
69622;BME280;56841;55.964;37.674;2023-04-21T01:57:04;99603.06;;;5.43;46.49
69622;BME280;56841;55.964;37.674;2023-04-21T01:59:31;99604.03;;;5.42;46.58
69622;BME280;56841;55.964;37.674;2023-04-21T02:01:56;99605.69;;;5.43;46.87
69622;BME280;56841;55.964;37.674;2023-04-21T02:04:22;99605.69;;;5.43;47.29
69622;BME280;56841;55.964;37.674;2023-04-21T02:06:48;99605.94;;;5.40;47.12
69622;BME280;56841;55.964;37.674;2023-04-21T02:09:14;99604.19;;;5.40;47.17
69622;BME280;56841;55.964;37.674;2023-04-21T02:11:40;99601.69;;;5.39;47.13
69622;BME280;56841;55.964;37.674;2023-04-21T02:14:06;99610.34;;;5.39;46.92
69622;BME280;56841;55.964;37.674;2023-04-21T02:16:32;99602.75;;;5.36;47.08
69622;BME280;56841;55.964;37.674;2023-04-21T02:18:59;99597.94;;;5.32;47.04
69622;BME280;56841;55.964;37.674;2023-04-21T02:21:26;99602.47;;;5.30;47.20
69622;BME280;56841;55.964;37.674;2023-04-21T02:23:52;99602.47;;;5.30;46.91
69622;BME280;56841;55.964;37.674;2023-04-21T02:26:18;99606.31;;;5.26;47.20
69622;BME280;56841;55.964;37.674;2023-04-21T02:28:44;99610.47;;;5.28;47.01
69622;BME280;56841;55.964;37.674;2023-04-21T02:31:10;99597.94;;;5.32;47.02
69622;BME280;56841;55.964;37.674;2023-04-21T02:33:36;99606.63;;;5.32;46.86
69622;BME280;56841;55.964;37.674;2023-04-21T02:36:02;99609.13;;;5.34;47.41
69622;BME280;56841;55.964;37.674;2023-04-21T02:38:28;99605.94;;;5.30;47.92
69622;BME280;56841;55.964;37.674;2023-04-21T02:40:55;99606.88;;;5.29;47.79
69622;BME280;56841;55.964;37.674;2023-04-21T02:43:21;99610.22;;;5.31;47.19
69622;BME280;56841;55.964;37.674;2023-04-21T02:45:47;99611.03;;;5.32;46.94
69622;BME280;56841;55.964;37.674;2023-04-21T02:48:13;99609.25;;;5.32;47.31
69622;BME280;56841;55.964;37.674;2023-04-21T02:50:39;99613.50;;;5.33;46.77
69622;BME280;56841;55.964;37.674;2023-04-21T02:53:06;99608.41;;;5.32;46.94
69622;BME280;56841;55.964;37.674;2023-04-21T02:55:32;99612.28;;;5.28;47.61
69622;BME280;56841;55.964;37.674;2023-04-21T02:57:58;99609.91;;;5.25;47.78
69622;BME280;56841;55.964;37.674;2023-04-21T03:00:24;99611.72;;;5.24;48.53
69622;BME280;56841;55.964;37.674;2023-04-21T03:02:50;99610.75;;;5.25;48.11
69622;BME280;56841;55.964;37.674;2023-04-21T03:05:18;99613.91;;;5.29;48.25
69622;BME280;56841;55.964;37.674;2023-04-21T03:07:44;99611.03;;;5.32;48.69
69622;BME280;56841;55.964;37.674;2023-04-21T03:10:10;99618.63;;;5.35;48.89
69622;BME280;56841;55.964;37.674;2023-04-21T03:12:36;99618.63;;;5.35;49.11
69622;BME280;56841;55.964;37.674;2023-04-21T03:15:03;99603.63;;;5.37;49.04
69622;BME280;56841;55.964;37.674;2023-04-21T03:17:30;99609.28;;;5.42;49.70
69622;BME280;56841;55.964;37.674;2023-04-21T03:19:56;99619.22;;;5.48;49.76
69622;BME280;56841;55.964;37.674;2023-04-21T03:22:21;99608.19;;;5.54;49.31
69622;BME280;56841;55.964;37.674;2023-04-21T03:24:47;99612.75;;;5.62;49.14
69622;BME280;56841;55.964;37.674;2023-04-21T03:27:13;99618.94;;;5.70;48.83
69622;BME280;56841;55.964;37.674;2023-04-21T03:29:39;99614.16;;;5.76;48.49
69622;BME280;56841;55.964;37.674;2023-04-21T03:32:05;99614.28;;;5.84;48.20
69622;BME280;56841;55.964;37.674;2023-04-21T03:34:30;99610.88;;;5.93;47.43
69622;BME280;56841;55.964;37.674;2023-04-21T03:36:59;99616.50;;;6.08;46.98
69622;BME280;56841;55.964;37.674;2023-04-21T03:39:24;99615.16;;;6.13;46.96
69622;BME280;56841;55.964;37.674;2023-04-21T03:41:51;99611.81;;;6.21;46.78
69622;BME280;56841;55.964;37.674;2023-04-21T03:44:17;99610.84;;;6.32;46.50
69622;BME280;56841;55.964;37.674;2023-04-21T03:46:43;99617.44;;;6.46;45.79
69622;BME280;56841;55.964;37.674;2023-04-21T03:49:08;99618.66;;;6.61;45.47
69622;BME280;56841;55.964;37.674;2023-04-21T03:51:34;99611.44;;;6.73;44.78
69622;BME280;56841;55.964;37.674;2023-04-21T03:54:00;99616.66;;;6.82;44.39
69622;BME280;56841;55.964;37.674;2023-04-21T03:56:26;99613.84;;;6.94;44.02
69622;BME280;56841;55.964;37.674;2023-04-21T03:58:51;99609.25;;;7.05;43.67
69622;BME280;56841;55.964;37.674;2023-04-21T04:01:17;99605.59;;;7.16;43.24
69622;BME280;56841;55.964;37.674;2023-04-21T04:03:43;99606.66;;;7.23;43.19
69622;BME280;56841;55.964;37.674;2023-04-21T04:06:09;99610.06;;;7.33;42.86
69622;BME280;56841;55.964;37.674;2023-04-21T04:08:35;99618.19;;;7.40;42.71
69622;BME280;56841;55.964;37.674;2023-04-21T04:11:00;99616.78;;;7.46;42.80
69622;BME280;56841;55.964;37.674;2023-04-21T04:13:26;99613.03;;;7.48;42.78
69622;BME280;56841;55.964;37.674;2023-04-21T04:15:53;99615.75;;;7.56;42.81
69622;BME280;56841;55.964;37.674;2023-04-21T04:18:20;99615.97;;;7.63;42.40
69622;BME280;56841;55.964;37.674;2023-04-21T04:20:46;99612.06;;;7.67;41.98
69622;BME280;56841;55.964;37.674;2023-04-21T04:23:11;99611.63;;;7.72;41.93
69622;BME280;56841;55.964;37.674;2023-04-21T04:25:37;99609.38;;;7.77;41.62
69622;BME280;56841;55.964;37.674;2023-04-21T04:28:03;99605.84;;;7.86;41.50
69622;BME280;56841;55.964;37.674;2023-04-21T04:30:30;99616.16;;;7.97;41.50
69622;BME280;56841;55.964;37.674;2023-04-21T04:32:57;99606.06;;;8.11;41.32
69622;BME280;56841;55.964;37.674;2023-04-21T04:35:23;99608.47;;;8.22;40.57
69622;BME280;56841;55.964;37.674;2023-04-21T04:37:49;99607.84;;;8.28;40.65
69622;BME280;56841;55.964;37.674;2023-04-21T04:40:15;99608.72;;;8.37;40.27
69622;BME280;56841;55.964;37.674;2023-04-21T04:42:41;99599.94;;;8.46;40.11
69622;BME280;56841;55.964;37.674;2023-04-21T04:45:08;99595.03;;;8.51;40.41
69622;BME280;56841;55.964;37.674;2023-04-21T04:47:37;99606.16;;;8.63;39.88
69622;BME280;56841;55.964;37.674;2023-04-21T04:50:04;99601.94;;;8.78;40.18
69622;BME280;56841;55.964;37.674;2023-04-21T04:52:30;99596.56;;;8.88;39.89
69622;BME280;56841;55.964;37.674;2023-04-21T04:54:56;99598.41;;;8.95;39.40
69622;BME280;56841;55.964;37.674;2023-04-21T04:57:22;99608.00;;;9.05;39.57
69622;BME280;56841;55.964;37.674;2023-04-21T04:59:48;99601.13;;;9.12;38.92
69622;BME280;56841;55.964;37.674;2023-04-21T05:02:13;99606.63;;;9.27;39.11
69622;BME280;56841;55.964;37.674;2023-04-21T05:04:40;99598.09;;;9.41;39.17
69622;BME280;56841;55.964;37.674;2023-04-21T05:07:06;99602.25;;;9.52;38.56
69622;BME280;56841;55.964;37.674;2023-04-21T05:09:33;99593.53;;;9.59;38.15
69622;BME280;56841;55.964;37.674;2023-04-21T05:11:59;99592.53;;;9.60;37.89
69622;BME280;56841;55.964;37.674;2023-04-21T05:14:26;99585.63;;;9.67;37.71
69622;BME280;56841;55.964;37.674;2023-04-21T05:16:52;99579.06;;;9.80;37.86
69622;BME280;56841;55.964;37.674;2023-04-21T05:19:18;99579.56;;;9.83;38.03
69622;BME280;56841;55.964;37.674;2023-04-21T05:21:44;99585.50;;;9.93;36.68
69622;BME280;56841;55.964;37.674;2023-04-21T05:24:10;99586.81;;;9.89;37.08
69622;BME280;56841;55.964;37.674;2023-04-21T05:26:36;99583.38;;;10.05;36.48
69622;BME280;56841;55.964;37.674;2023-04-21T05:29:01;99573.47;;;10.15;35.98
69622;BME280;56841;55.964;37.674;2023-04-21T05:31:27;99576.94;;;10.16;36.11
69622;BME280;56841;55.964;37.674;2023-04-21T05:33:53;99576.91;;;10.24;35.94
69622;BME280;56841;55.964;37.674;2023-04-21T05:36:19;99578.25;;;10.28;36.05
69622;BME280;56841;55.964;37.674;2023-04-21T05:38:45;99583.88;;;10.33;36.14
69622;BME280;56841;55.964;37.674;2023-04-21T05:41:11;99577.06;;;10.55;35.68
69622;BME280;56841;55.964;37.674;2023-04-21T05:43:37;99573.91;;;10.68;35.49
69622;BME280;56841;55.964;37.674;2023-04-21T05:46:08;99573.72;;;10.78;35.39
69622;BME280;56841;55.964;37.674;2023-04-21T05:48:34;99570.38;;;10.92;34.86
69622;BME280;56841;55.964;37.674;2023-04-21T05:51:10;99569.69;;;10.98;34.65
69622;BME280;56841;55.964;37.674;2023-04-21T05:53:37;99569.50;;;11.00;34.75
69622;BME280;56841;55.964;37.674;2023-04-21T05:56:03;99563.00;;;11.10;34.61
69622;BME280;56841;55.964;37.674;2023-04-21T05:58:29;99570.75;;;11.20;33.98
69622;BME280;56841;55.964;37.674;2023-04-21T06:00:55;99566.72;;;11.32;33.95
69622;BME280;56841;55.964;37.674;2023-04-21T06:03:21;99557.22;;;11.46;33.79
69622;BME280;56841;55.964;37.674;2023-04-21T06:05:51;99564.28;;;11.54;33.49
69622;BME280;56841;55.964;37.674;2023-04-21T06:08:17;99563.69;;;11.44;33.05
69622;BME280;56841;55.964;37.674;2023-04-21T06:10:43;99559.59;;;11.64;33.26
69622;BME280;56841;55.964;37.674;2023-04-21T06:13:08;99556.88;;;11.72;32.63
69622;BME280;56841;55.964;37.674;2023-04-21T06:15:34;99551.53;;;11.80;32.69
69622;BME280;56841;55.964;37.674;2023-04-21T06:18:00;99552.50;;;11.79;32.73
69622;BME280;56841;55.964;37.674;2023-04-21T06:20:26;99548.81;;;11.97;32.24
69622;BME280;56841;55.964;37.674;2023-04-21T06:22:52;99545.59;;;12.01;32.33
69622;BME280;56841;55.964;37.674;2023-04-21T06:25:19;99549.28;;;12.15;32.16
69622;BME280;56841;55.964;37.674;2023-04-21T06:27:45;99546.56;;;12.23;32.36
69622;BME280;56841;55.964;37.674;2023-04-21T06:30:11;99543.44;;;12.20;32.36
69622;BME280;56841;55.964;37.674;2023-04-21T06:32:37;99542.59;;;12.42;32.01
69622;BME280;56841;55.964;37.674;2023-04-21T06:35:03;99540.66;;;12.51;31.94
69622;BME280;56841;55.964;37.674;2023-04-21T06:37:30;99542.50;;;12.65;31.57
69622;BME280;56841;55.964;37.674;2023-04-21T06:39:56;99545.78;;;12.67;31.58
69622;BME280;56841;55.964;37.674;2023-04-21T06:42:22;99544.41;;;12.71;31.04
69622;BME280;56841;55.964;37.674;2023-04-21T06:44:48;99532.91;;;12.79;30.92
69622;BME280;56841;55.964;37.674;2023-04-21T06:47:14;99537.91;;;12.89;31.06
69622;BME280;56841;55.964;37.674;2023-04-21T06:49:41;99533.78;;;13.01;30.95
69622;BME280;56841;55.964;37.674;2023-04-21T06:52:07;99535.53;;;12.94;30.67
69622;BME280;56841;55.964;37.674;2023-04-21T06:54:33;99542.22;;;12.90;30.67
69622;BME280;56841;55.964;37.674;2023-04-21T06:56:59;99533.53;;;12.96;30.03
69622;BME280;56841;55.964;37.674;2023-04-21T06:59:25;99525.34;;;13.12;30.15
69622;BME280;56841;55.964;37.674;2023-04-21T07:01:51;99524.81;;;13.17;30.55
69622;BME280;56841;55.964;37.674;2023-04-21T07:04:18;99526.63;;;13.31;30.37
69622;BME280;56841;55.964;37.674;2023-04-21T07:06:44;99517.28;;;13.35;30.17
69622;BME280;56841;55.964;37.674;2023-04-21T07:09:10;99517.72;;;13.39;29.92
69622;BME280;56841;55.964;37.674;2023-04-21T07:11:36;99518.03;;;13.29;30.09
69622;BME280;56841;55.964;37.674;2023-04-21T07:14:01;99514.91;;;13.40;30.44
69622;BME280;56841;55.964;37.674;2023-04-21T07:16:28;99504.38;;;13.47;29.98
69622;BME280;56841;55.964;37.674;2023-04-21T07:18:54;99504.41;;;13.54;30.33
69622;BME280;56841;55.964;37.674;2023-04-21T07:21:19;99511.31;;;13.48;30.11
69622;BME280;56841;55.964;37.674;2023-04-21T07:23:45;99507.13;;;13.60;30.27
69622;BME280;56841;55.964;37.674;2023-04-21T07:26:12;99514.78;;;13.70;29.74
69622;BME280;56841;55.964;37.674;2023-04-21T07:28:37;99500.16;;;13.81;30.56
69622;BME280;56841;55.964;37.674;2023-04-21T07:31:05;99498.47;;;13.73;30.10
69622;BME280;56841;55.964;37.674;2023-04-21T07:33:32;99497.50;;;13.81;29.72
69622;BME280;56841;55.964;37.674;2023-04-21T07:35:58;99494.31;;;13.85;29.76
69622;BME280;56841;55.964;37.674;2023-04-21T07:38:24;99494.84;;;13.81;29.61
69622;BME280;56841;55.964;37.674;2023-04-21T07:40:50;99493.72;;;13.90;29.63
69622;BME280;56841;55.964;37.674;2023-04-21T07:43:16;99489.16;;;14.05;29.54
69622;BME280;56841;55.964;37.674;2023-04-21T07:45:44;99489.38;;;14.10;29.63
69622;BME280;56841;55.964;37.674;2023-04-21T07:48:10;99487.81;;;13.94;29.87
69622;BME280;56841;55.964;37.674;2023-04-21T07:50:36;99491.56;;;14.00;29.73
69622;BME280;56841;55.964;37.674;2023-04-21T07:53:01;99487.53;;;14.11;29.99
69622;BME280;56841;55.964;37.674;2023-04-21T07:55:28;99480.31;;;14.26;30.95
69622;BME280;56841;55.964;37.674;2023-04-21T07:57:54;99482.81;;;14.06;30.40
69622;BME280;56841;55.964;37.674;2023-04-21T08:00:20;99475.88;;;14.05;30.87
69622;BME280;56841;55.964;37.674;2023-04-21T08:02:46;99473.84;;;14.07;30.89
69622;BME280;56841;55.964;37.674;2023-04-21T08:05:12;99473.06;;;14.13;31.06
69622;BME280;56841;55.964;37.674;2023-04-21T08:07:37;99464.56;;;14.25;30.76
69622;BME280;56841;55.964;37.674;2023-04-21T08:10:05;99464.25;;;14.41;30.80
69622;BME280;56841;55.964;37.674;2023-04-21T08:12:31;99462.22;;;14.43;30.77
69622;BME280;56841;55.964;37.674;2023-04-21T08:14:57;99459.16;;;14.46;30.64
69622;BME280;56841;55.964;37.674;2023-04-21T08:17:23;99466.78;;;14.56;31.16
69622;BME280;56841;55.964;37.674;2023-04-21T08:19:49;99452.94;;;14.60;31.20
69622;BME280;56841;55.964;37.674;2023-04-21T08:22:15;99449.69;;;14.65;30.69
69622;BME280;56841;55.964;37.674;2023-04-21T08:24:41;99445.97;;;14.59;30.69
69622;BME280;56841;55.964;37.674;2023-04-21T08:27:07;99442.72;;;14.64;31.14
69622;BME280;56841;55.964;37.674;2023-04-21T08:29:32;99440.91;;;14.71;31.50
69622;BME280;56841;55.964;37.674;2023-04-21T08:31:58;99445.44;;;14.77;30.92
69622;BME280;56841;55.964;37.674;2023-04-21T08:34:24;99445.22;;;14.79;31.05
69622;BME280;56841;55.964;37.674;2023-04-21T08:36:50;99435.84;;;14.83;30.58
69622;BME280;56841;55.964;37.674;2023-04-21T08:39:16;99440.59;;;14.94;30.75
69622;BME280;56841;55.964;37.674;2023-04-21T08:41:42;99435.72;;;15.04;31.17
69622;BME280;56841;55.964;37.674;2023-04-21T08:44:08;99433.03;;;15.11;31.19
69622;BME280;56841;55.964;37.674;2023-04-21T08:46:36;99433.69;;;15.26;30.64
69622;BME280;56841;55.964;37.674;2023-04-21T08:49:02;99427.75;;;15.17;31.12
69622;BME280;56841;55.964;37.674;2023-04-21T08:51:28;99429.41;;;15.25;31.14
69622;BME280;56841;55.964;37.674;2023-04-21T08:53:58;99412.78;;;14.97;30.60
69622;BME280;56841;55.964;37.674;2023-04-21T08:56:26;99418.50;;;15.00;30.57
69622;BME280;56841;55.964;37.674;2023-04-21T08:58:53;99414.66;;;15.16;30.88
69622;BME280;56841;55.964;37.674;2023-04-21T09:01:18;99407.31;;;15.25;31.08
69622;BME280;56841;55.964;37.674;2023-04-21T09:03:44;99406.69;;;15.29;30.68
69622;BME280;56841;55.964;37.674;2023-04-21T09:06:10;99404.88;;;15.36;31.02
69622;BME280;56841;55.964;37.674;2023-04-21T09:08:43;99392.78;;;15.54;30.33
69622;BME280;56841;55.964;37.674;2023-04-21T09:11:17;99394.22;;;15.63;30.23
69622;BME280;56841;55.964;37.674;2023-04-21T09:13:44;99397.06;;;15.55;30.18
69622;BME280;56841;55.964;37.674;2023-04-21T09:16:20;99387.69;;;15.52;30.57
69622;BME280;56841;55.964;37.674;2023-04-21T09:18:46;99394.22;;;15.43;30.85
69622;BME280;56841;55.964;37.674;2023-04-21T09:21:14;99388.91;;;15.43;30.88
69622;BME280;56841;55.964;37.674;2023-04-21T09:23:41;99389.09;;;15.41;30.99
69622;BME280;56841;55.964;37.674;2023-04-21T09:26:07;99384.00;;;15.40;30.42
69622;BME280;56841;55.964;37.674;2023-04-21T09:28:33;99384.81;;;15.60;29.89
69622;BME280;56841;55.964;37.674;2023-04-21T09:30:59;99380.94;;;15.83;29.88
69622;BME280;56841;55.964;37.674;2023-04-21T09:33:25;99383.56;;;15.90;29.94
69622;BME280;56841;55.964;37.674;2023-04-21T09:35:51;99372.91;;;15.90;29.83
69622;BME280;56841;55.964;37.674;2023-04-21T09:38:20;99373.34;;;15.93;29.74
69622;BME280;56841;55.964;37.674;2023-04-21T09:40:56;99370.06;;;15.91;30.04
69622;BME280;56841;55.964;37.674;2023-04-21T09:43:23;99362.25;;;15.96;29.79
69622;BME280;56841;55.964;37.674;2023-04-21T09:45:49;99354.06;;;16.04;29.33
69622;BME280;56841;55.964;37.674;2023-04-21T09:48:16;99355.91;;;15.97;29.47
69622;BME280;56841;55.964;37.674;2023-04-21T09:50:45;99355.09;;;16.03;29.50
69622;BME280;56841;55.964;37.674;2023-04-21T09:53:14;99353.06;;;15.85;29.30
69622;BME280;56841;55.964;37.674;2023-04-21T09:55:41;99349.16;;;15.95;29.98
69622;BME280;56841;55.964;37.674;2023-04-21T09:58:08;99355.31;;;15.88;29.19
69622;BME280;56841;55.964;37.674;2023-04-21T10:00:38;99353.25;;;15.97;29.04
69622;BME280;56841;55.964;37.674;2023-04-21T10:03:04;99351.41;;;15.98;28.96
69622;BME280;56841;55.964;37.674;2023-04-21T10:05:35;99346.06;;;16.04;28.79
69622;BME280;56841;55.964;37.674;2023-04-21T10:08:02;99344.59;;;16.08;29.38
69622;BME280;56841;55.964;37.674;2023-04-21T10:10:32;99353.34;;;16.29;28.99
69622;BME280;56841;55.964;37.674;2023-04-21T10:13:00;99339.06;;;16.62;28.84
69622;BME280;56841;55.964;37.674;2023-04-21T10:15:31;99341.13;;;16.59;29.25
69622;BME280;56841;55.964;37.674;2023-04-21T10:18:20;99332.94;;;16.54;29.26
69622;BME280;56841;55.964;37.674;2023-04-21T10:20:57;99334.97;;;16.14;29.65
69622;BME280;56841;55.964;37.674;2023-04-21T10:23:41;99332.09;;;16.09;29.99
69622;BME280;56841;55.964;37.674;2023-04-21T10:26:09;99328.44;;;16.03;29.62
69622;BME280;56841;55.964;37.674;2023-04-21T10:28:43;99322.94;;;15.92;30.26
69622;BME280;56841;55.964;37.674;2023-04-21T10:31:34;99329.09;;;15.92;29.73
69622;BME280;56841;55.964;37.674;2023-04-21T10:39:02;99324.88;;;16.23;28.64
69622;BME280;56841;55.964;37.674;2023-04-21T10:41:30;99325.06;;;16.34;28.59
69622;BME280;56841;55.964;37.674;2023-04-21T10:44:13;99316.69;;;16.24;28.87
69622;BME280;56841;55.964;37.674;2023-04-21T10:46:44;99306.41;;;16.34;28.46
69622;BME280;56841;55.964;37.674;2023-04-21T10:49:20;99311.47;;;16.43;28.52
69622;BME280;56841;55.964;37.674;2023-04-21T10:54:26;99308.84;;;16.36;28.25
69622;BME280;56841;55.964;37.674;2023-04-21T10:56:53;99304.00;;;16.13;27.75
69622;BME280;56841;55.964;37.674;2023-04-21T10:59:20;99297.66;;;16.21;28.20
69622;BME280;56841;55.964;37.674;2023-04-21T11:01:46;99295.50;;;16.36;29.13
69622;BME280;56841;55.964;37.674;2023-04-21T11:04:13;99290.66;;;16.58;28.47
69622;BME280;56841;55.964;37.674;2023-04-21T11:06:39;99292.66;;;16.69;27.99
69622;BME280;56841;55.964;37.674;2023-04-21T11:09:05;99292.13;;;16.92;27.90
69622;BME280;56841;55.964;37.674;2023-04-21T11:11:31;99292.34;;;17.16;27.61
69622;BME280;56841;55.964;37.674;2023-04-21T11:13:59;99295.25;;;17.14;27.77
69622;BME280;56841;55.964;37.674;2023-04-21T11:16:26;99293.97;;;16.92;27.67
69622;BME280;56841;55.964;37.674;2023-04-21T11:18:52;99295.34;;;17.01;27.07
69622;BME280;56841;55.964;37.674;2023-04-21T11:21:18;99294.34;;;16.64;27.41
69622;BME280;56841;55.964;37.674;2023-04-21T11:23:54;99294.53;;;17.00;27.40
69622;BME280;56841;55.964;37.674;2023-04-21T11:26:36;99280.19;;;16.95;27.70
69622;BME280;56841;55.964;37.674;2023-04-21T11:29:08;99279.72;;;17.04;27.05
69622;BME280;56841;55.964;37.674;2023-04-21T11:31:36;99284.66;;;17.01;26.80
69622;BME280;56841;55.964;37.674;2023-04-21T11:34:04;99276.50;;;17.21;27.01
69622;BME280;56841;55.964;37.674;2023-04-21T11:36:39;99274.16;;;17.31;27.16
69622;BME280;56841;55.964;37.674;2023-04-21T11:39:05;99265.53;;;17.29;26.92
69622;BME280;56841;55.964;37.674;2023-04-21T11:41:38;99265.66;;;17.16;26.88
69622;BME280;56841;55.964;37.674;2023-04-21T11:44:04;99256.31;;;17.68;26.29
69622;BME280;56841;55.964;37.674;2023-04-21T11:46:30;99261.81;;;17.73;26.33
69622;BME280;56841;55.964;37.674;2023-04-21T11:49:11;99251.50;;;17.40;27.03
69622;BME280;56841;55.964;37.674;2023-04-21T11:51:41;99261.91;;;17.23;27.11
69622;BME280;56841;55.964;37.674;2023-04-21T11:54:11;99250.34;;;17.29;27.12
69622;BME280;56841;55.964;37.674;2023-04-21T11:56:39;99250.50;;;17.35;27.05
69622;BME280;56841;55.964;37.674;2023-04-21T11:59:17;99248.16;;;17.63;26.28
69622;BME280;56841;55.964;37.674;2023-04-21T12:01:45;99238.91;;;17.47;25.94
69622;BME280;56841;55.964;37.674;2023-04-21T12:04:16;99237.19;;;17.35;26.05
69622;BME280;56841;55.964;37.674;2023-04-21T12:06:44;99237.09;;;17.41;26.02
69622;BME280;56841;55.964;37.674;2023-04-21T12:09:18;99230.94;;;17.59;25.59
69622;BME280;56841;55.964;37.674;2023-04-21T12:11:47;99230.16;;;17.77;25.20
69622;BME280;56841;55.964;37.674;2023-04-21T12:14:15;99223.69;;;17.66;25.32
69622;BME280;56841;55.964;37.674;2023-04-21T12:16:41;99225.56;;;17.84;25.86
69622;BME280;56841;55.964;37.674;2023-04-21T12:19:07;99219.47;;;17.95;26.10
69622;BME280;56841;55.964;37.674;2023-04-21T12:21:36;99228.59;;;17.88;25.97
69622;BME280;56841;55.964;37.674;2023-04-21T12:24:04;99228.09;;;17.79;26.59
69622;BME280;56841;55.964;37.674;2023-04-21T12:26:29;99219.06;;;18.52;26.17
69622;BME280;56841;55.964;37.674;2023-04-21T12:28:55;99219.28;;;20.32;23.38
69622;BME280;56841;55.964;37.674;2023-04-21T12:31:21;99210.63;;;22.14;21.33
69622;BME280;56841;55.964;37.674;2023-04-21T12:33:47;99209.78;;;23.32;19.96
69622;BME280;56841;55.964;37.674;2023-04-21T12:36:12;99215.06;;;24.73;18.69
69622;BME280;56841;55.964;37.674;2023-04-21T12:38:38;99198.19;;;25.58;17.58
69622;BME280;56841;55.964;37.674;2023-04-21T12:41:04;99201.16;;;25.61;17.47
69622;BME280;56841;55.964;37.674;2023-04-21T12:43:30;99193.56;;;26.18;17.22
69622;BME280;56841;55.964;37.674;2023-04-21T12:45:56;99186.88;;;27.13;16.45
69622;BME280;56841;55.964;37.674;2023-04-21T12:48:22;99186.22;;;27.69;16.03
69622;BME280;56841;55.964;37.674;2023-04-21T12:50:48;99191.59;;;27.74;15.78
69622;BME280;56841;55.964;37.674;2023-04-21T12:53:14;99188.34;;;27.77;15.68
69622;BME280;56841;55.964;37.674;2023-04-21T12:55:41;99187.56;;;27.48;15.64
69622;BME280;56841;55.964;37.674;2023-04-21T12:58:08;99191.25;;;26.40;16.68
69622;BME280;56841;55.964;37.674;2023-04-21T13:00:35;99187.34;;;26.17;16.65
69622;BME280;56841;55.964;37.674;2023-04-21T13:03:01;99182.63;;;25.19;17.43